You are not logged in, Click here to log in
ICAO: EHAM Country: 荷蘭首都阿姆斯特丹
Latitude: 52.3105 Longitude: 4.76827
Total Arrivals: 24 Total Departures: 26
Latest Arrival: OS373 (LOWW-EHAM)Jason. Li Latest Departure: BA431 (EHAM-EGLL)Jason. Li
Scenery:
METAR : EHAM 261125Z 23018KT 200V260 9999 FEW028 20/13 Q1011 NOSIG

阿姆斯特丹史基浦機場AMS